CheckWX is a tool to help pilots better visualize weather data.  It is not intended as a substitute for an official pre-flight weather briefing.

05:03:58 UTC

KIZG METAR
Eastern Slopes Regional Airport
Fryeburg, Maine, USA
Current

1 hour ago

KIZG 290354Z AUTO 23005KT 10SM CLR M05/M13 A2972 RMK AO2 SLP069 T10501133
Observed
Feb-29 @ 03:54 UTC
Wind
  • 230° at 5 KTS
Visibility
10 SM
Flight Rules
VFR
Cloud Levels
  • Clear skies
Temperature
-5°C / 23°F
Dewpoint
-13°C / 9°F
Humidity
54%
Altimeter
29.72" Hg
Pressure
1006.42 hPa
Previous

2 hours ago

KIZG 290254Z AUTO 22003KT 10SM BKN060 M05/M13 A2973 RMK AO2 SLP073 T10501128 50005
Observed
Feb-29 @ 02:54 UTC
Wind
  • 220° at 3 KTS
Visibility
10 SM
Flight Rules
VFR
Cloud Levels
  • Broken at 6,000' AGL
Temperature
-5°C / 23°F
Dewpoint
-13°C / 9°F
Humidity
54%
Altimeter
29.73" Hg
Pressure
1006.82 hPa
Previous

3 hours ago

KIZG 290154Z AUTO 10SM CLR M05/M12 A2973 RMK AO2 SLP075 T10501122
Observed
Feb-29 @ 01:54 UTC
Visibility
10 SM
Flight Rules
VFR
Cloud Levels
  • Clear skies
Temperature
-5°C / 23°F
Dewpoint
-12°C / 10°F
Humidity
58%
Altimeter
29.73" Hg
Pressure
1006.82 hPa